Schenectady, NY (12309)

2:48 PM EDT on July 05, 2015 (GMT -0400)
GE Volunteers | | Change Station
CLOSE
Current Station
Personal Weather Station
Location: Schenectady, NY
Elevation: 350 ft
Nearby Weather Stations

Elev 350 ft 42.83 °N, 73.88 °W | Updated 1 second ago

Mostly Cloudy
Mostly Cloudy
81.0 °F
Feels Like 82 °F
N
2.9
Wind Variable Wind from West
Gusts 5.0 mph

Today
High -- | Low -- °F
--% Chance of Precip.
Yesterday
High -- | Low -- °F
Precip. -- in
5:23 AM 8:36 PM
Waning Gibbous, 83% visible
Pressure 30.11 in
Visibility 10.0 miles
Clouds Mostly Cloudy 4900 ft
Heat Index 82 °F
Dew Point 62 °F
Humidity 52%
Rainfall 0.00 in
Snow Depth Not available.
UV 6 out of 12
Pollen 5.20 out of 12
Air Quality Not available.
Flu Activity Not available.
METAR KALB 051751Z 30008KT 10SM BKN049 27/15 A3011 RMK AO2 SLP194 BKN V SCT T02670150 10272 20178 56003

More Conditions Fewer Conditions

Pressure 30.11 in
Visibility 10.0 miles
Clouds Mostly Cloudy 4900 ft
Heat Index 82 °F
Dew Point 62 °F
Humidity 52%
Rainfall 0.00 in
Snow Depth Not available.
UV 6 out of 12
Pollen 5.20 out of 12
Air Quality Not available.
Flu Activity Not available.
METAR KALB 051751Z 30008KT 10SM BKN049 27/15 A3011 RMK AO2 SLP194 BKN V SCT T02670150 10272 20178 56003

More Conditions Fewer Conditions

10-Day Weather Forecast

×

Almanac

Astronomy

Jul. 05, 2015 Rise Set
Actual Time
Civil Twilight
Nautical Twilight
Astronomical Twilight
Moon
Length of Visible Light
Length of Day
Tomorrow will be .
, % of the Moon is Illuminated

Today's Extremes

State Highs State Lows

Community

WunderPhotos

Upload Photos

1,835,346 photos uploaded!

WunderBlogs® & News

Nearby

Air Quality

  Air Quality AQ Index Pollutant
Not available.

Snow Depth

Station Depth Elevation

Earthquake Activity

City Distance Mag. Time & Date
Minimum magnitude displayed is 2.5.

Coastal Water Temperatures

Place Temperature

Stations

Nearby Weather Stations

Station Location Temp. Windchill Dew Point Humidity Wind Precip. Elev Updated Type